sensor_id;sensor_type;location;lat;lon;timestamp;P1;durP1;ratioP1;P2;durP2;ratioP2
54871;SDS011;43914;57.680;11.982;2023-04-15T00:00:13;11.90;;;6.40;;
54871;SDS011;43914;57.680;11.982;2023-04-15T00:02:39;13.40;;;6.10;;
54871;SDS011;43914;57.680;11.982;2023-04-15T00:05:05;12.60;;;5.90;;
54871;SDS011;43914;57.680;11.982;2023-04-15T00:07:31;13.10;;;6.30;;
54871;SDS011;43914;57.680;11.982;2023-04-15T00:09:57;10.00;;;5.00;;
54871;SDS011;43914;57.680;11.982;2023-04-15T00:12:23;12.00;;;5.90;;
54871;SDS011;43914;57.680;11.982;2023-04-15T00:14:50;12.10;;;5.90;;
54871;SDS011;43914;57.680;11.982;2023-04-15T00:17:15;14.00;;;6.00;;
54871;SDS011;43914;57.680;11.982;2023-04-15T00:19:41;10.70;;;5.80;;
54871;SDS011;43914;57.680;11.982;2023-04-15T00:22:08;11.50;;;5.90;;
54871;SDS011;43914;57.680;11.982;2023-04-15T00:24:34;12.80;;;6.00;;
54871;SDS011;43914;57.680;11.982;2023-04-15T00:26:59;11.60;;;5.80;;
54871;SDS011;43914;57.680;11.982;2023-04-15T00:29:25;11.60;;;5.80;;
54871;SDS011;43914;57.680;11.982;2023-04-15T00:31:50;14.90;;;6.30;;
54871;SDS011;43914;57.680;11.982;2023-04-15T00:34:16;9.80;;;5.30;;
54871;SDS011;43914;57.680;11.982;2023-04-15T00:36:42;10.80;;;5.50;;
54871;SDS011;43914;57.680;11.982;2023-04-15T00:39:08;12.30;;;6.10;;
54871;SDS011;43914;57.680;11.982;2023-04-15T00:41:34;13.40;;;6.10;;
54871;SDS011;43914;57.680;11.982;2023-04-15T00:44:03;11.80;;;6.40;;
54871;SDS011;43914;57.680;11.982;2023-04-15T00:46:34;11.80;;;5.60;;
54871;SDS011;43914;57.680;11.982;2023-04-15T00:49:05;11.70;;;5.90;;
54871;SDS011;43914;57.680;11.982;2023-04-15T00:51:31;13.10;;;5.80;;
54871;SDS011;43914;57.680;11.982;2023-04-15T00:54:00;11.80;;;5.90;;
54871;SDS011;43914;57.680;11.982;2023-04-15T00:56:29;11.50;;;6.10;;
54871;SDS011;43914;57.680;11.982;2023-04-15T00:58:55;11.60;;;5.60;;
54871;SDS011;43914;57.680;11.982;2023-04-15T01:01:23;11.60;;;6.10;;
54871;SDS011;43914;57.680;11.982;2023-04-15T01:03:49;12.90;;;6.50;;
54871;SDS011;43914;57.680;11.982;2023-04-15T01:06:15;13.40;;;6.20;;
54871;SDS011;43914;57.680;11.982;2023-04-15T01:08:44;10.90;;;5.80;;
54871;SDS011;43914;57.680;11.982;2023-04-15T01:11:10;10.40;;;4.90;;
54871;SDS011;43914;57.680;11.982;2023-04-15T01:13:37;12.10;;;6.40;;
54871;SDS011;43914;57.680;11.982;2023-04-15T01:16:02;11.20;;;5.70;;
54871;SDS011;43914;57.680;11.982;2023-04-15T01:18:29;12.40;;;6.50;;
54871;SDS011;43914;57.680;11.982;2023-04-15T01:20:55;14.00;;;6.40;;
54871;SDS011;43914;57.680;11.982;2023-04-15T01:23:21;11.60;;;5.30;;
54871;SDS011;43914;57.680;11.982;2023-04-15T01:25:48;12.70;;;6.50;;
54871;SDS011;43914;57.680;11.982;2023-04-15T01:28:14;11.80;;;5.80;;
54871;SDS011;43914;57.680;11.982;2023-04-15T01:30:40;10.50;;;5.10;;
54871;SDS011;43914;57.680;11.982;2023-04-15T01:33:06;11.50;;;6.00;;
54871;SDS011;43914;57.680;11.982;2023-04-15T01:35:31;10.40;;;5.50;;
54871;SDS011;43914;57.680;11.982;2023-04-15T01:38:02;12.80;;;6.10;;
54871;SDS011;43914;57.680;11.982;2023-04-15T01:40:31;11.20;;;5.40;;
54871;SDS011;43914;57.680;11.982;2023-04-15T01:42:58;12.40;;;5.70;;
54871;SDS011;43914;57.680;11.982;2023-04-15T01:45:24;11.80;;;5.50;;
54871;SDS011;43914;57.680;11.982;2023-04-15T01:47:50;12.50;;;5.50;;
54871;SDS011;43914;57.680;11.982;2023-04-15T01:50:15;12.40;;;5.80;;
54871;SDS011;43914;57.680;11.982;2023-04-15T01:52:40;13.40;;;5.80;;
54871;SDS011;43914;57.680;11.982;2023-04-15T01:55:06;14.30;;;6.40;;
54871;SDS011;43914;57.680;11.982;2023-04-15T01:57:32;12.60;;;6.00;;
54871;SDS011;43914;57.680;11.982;2023-04-15T01:59:58;13.60;;;6.00;;
54871;SDS011;43914;57.680;11.982;2023-04-15T02:02:23;12.40;;;5.80;;
54871;SDS011;43914;57.680;11.982;2023-04-15T02:04:49;10.30;;;5.40;;
54871;SDS011;43914;57.680;11.982;2023-04-15T02:07:15;11.40;;;4.90;;
54871;SDS011;43914;57.680;11.982;2023-04-15T02:09:41;10.90;;;5.60;;
54871;SDS011;43914;57.680;11.982;2023-04-15T02:12:07;11.40;;;5.20;;
54871;SDS011;43914;57.680;11.982;2023-04-15T02:14:33;10.90;;;5.20;;
54871;SDS011;43914;57.680;11.982;2023-04-15T02:16:59;12.30;;;6.00;;
54871;SDS011;43914;57.680;11.982;2023-04-15T02:19:31;13.00;;;5.70;;
54871;SDS011;43914;57.680;11.982;2023-04-15T02:21:58;10.60;;;5.30;;
54871;SDS011;43914;57.680;11.982;2023-04-15T02:24:25;12.30;;;5.30;;
54871;SDS011;43914;57.680;11.982;2023-04-15T02:26:51;11.80;;;5.90;;
54871;SDS011;43914;57.680;11.982;2023-04-15T02:29:17;12.30;;;5.50;;
54871;SDS011;43914;57.680;11.982;2023-04-15T02:31:42;12.70;;;5.40;;
54871;SDS011;43914;57.680;11.982;2023-04-15T02:34:09;12.10;;;5.30;;
54871;SDS011;43914;57.680;11.982;2023-04-15T02:36:35;10.80;;;5.20;;
54871;SDS011;43914;57.680;11.982;2023-04-15T02:39:00;10.80;;;5.30;;
54871;SDS011;43914;57.680;11.982;2023-04-15T02:41:28;13.00;;;5.90;;
54871;SDS011;43914;57.680;11.982;2023-04-15T02:43:54;11.00;;;5.60;;
54871;SDS011;43914;57.680;11.982;2023-04-15T02:46:20;11.30;;;5.30;;
54871;SDS011;43914;57.680;11.982;2023-04-15T02:48:47;10.00;;;5.20;;
54871;SDS011;43914;57.680;11.982;2023-04-15T02:51:19;11.10;;;5.60;;
54871;SDS011;43914;57.680;11.982;2023-04-15T02:53:47;12.20;;;5.90;;
54871;SDS011;43914;57.680;11.982;2023-04-15T02:56:13;11.60;;;5.90;;
54871;SDS011;43914;57.680;11.982;2023-04-15T02:58:40;11.20;;;5.60;;
54871;SDS011;43914;57.680;11.982;2023-04-15T03:01:06;10.90;;;5.30;;
54871;SDS011;43914;57.680;11.982;2023-04-15T03:03:34;11.80;;;5.80;;
54871;SDS011;43914;57.680;11.982;2023-04-15T03:06:00;11.80;;;6.00;;
54871;SDS011;43914;57.680;11.982;2023-04-15T03:08:26;11.50;;;5.50;;
54871;SDS011;43914;57.680;11.982;2023-04-15T03:10:51;10.30;;;5.50;;
54871;SDS011;43914;57.680;11.982;2023-04-15T03:13:18;11.30;;;5.70;;
54871;SDS011;43914;57.680;11.982;2023-04-15T03:15:45;11.30;;;6.10;;
54871;SDS011;43914;57.680;11.982;2023-04-15T03:18:11;10.70;;;5.80;;
54871;SDS011;43914;57.680;11.982;2023-04-15T03:20:37;11.00;;;5.90;;
54871;SDS011;43914;57.680;11.982;2023-04-15T03:23:02;12.10;;;6.00;;
54871;SDS011;43914;57.680;11.982;2023-04-15T03:25:28;11.80;;;5.90;;
54871;SDS011;43914;57.680;11.982;2023-04-15T03:27:53;11.60;;;6.00;;
54871;SDS011;43914;57.680;11.982;2023-04-15T03:30:19;11.10;;;6.10;;
54871;SDS011;43914;57.680;11.982;2023-04-15T03:32:44;10.90;;;5.30;;
54871;SDS011;43914;57.680;11.982;2023-04-15T03:35:10;11.00;;;5.30;;
54871;SDS011;43914;57.680;11.982;2023-04-15T03:37:36;12.70;;;6.20;;
54871;SDS011;43914;57.680;11.982;2023-04-15T03:40:01;10.90;;;5.50;;
54871;SDS011;43914;57.680;11.982;2023-04-15T03:42:27;12.10;;;6.30;;
54871;SDS011;43914;57.680;11.982;2023-04-15T03:44:52;11.50;;;6.30;;
54871;SDS011;43914;57.680;11.982;2023-04-15T03:47:18;10.80;;;5.80;;
54871;SDS011;43914;57.680;11.982;2023-04-15T03:49:43;12.40;;;5.40;;
54871;SDS011;43914;57.680;11.982;2023-04-15T03:52:08;11.40;;;5.30;;
54871;SDS011;43914;57.680;11.982;2023-04-15T03:54:34;12.90;;;5.80;;
54871;SDS011;43914;57.680;11.982;2023-04-15T03:56:59;11.50;;;6.00;;
54871;SDS011;43914;57.680;11.982;2023-04-15T03:59:25;11.00;;;5.70;;
54871;SDS011;43914;57.680;11.982;2023-04-15T04:01:51;12.00;;;5.30;;
54871;SDS011;43914;57.680;11.982;2023-04-15T04:04:16;12.40;;;5.40;;
54871;SDS011;43914;57.680;11.982;2023-04-15T04:06:42;11.10;;;5.90;;
54871;SDS011;43914;57.680;11.982;2023-04-15T04:09:08;13.20;;;6.40;;
54871;SDS011;43914;57.680;11.982;2023-04-15T04:11:33;12.30;;;6.20;;
54871;SDS011;43914;57.680;11.982;2023-04-15T04:13:59;13.10;;;6.20;;
54871;SDS011;43914;57.680;11.982;2023-04-15T04:16:27;11.20;;;5.60;;
54871;SDS011;43914;57.680;11.982;2023-04-15T04:18:53;11.30;;;5.90;;
54871;SDS011;43914;57.680;11.982;2023-04-15T04:21:18;13.50;;;6.60;;
54871;SDS011;43914;57.680;11.982;2023-04-15T04:23:45;11.40;;;5.70;;
54871;SDS011;43914;57.680;11.982;2023-04-15T04:26:10;13.60;;;6.30;;
54871;SDS011;43914;57.680;11.982;2023-04-15T04:28:36;11.90;;;5.90;;
54871;SDS011;43914;57.680;11.982;2023-04-15T04:31:03;11.70;;;5.50;;
54871;SDS011;43914;57.680;11.982;2023-04-15T04:33:29;12.30;;;6.80;;
54871;SDS011;43914;57.680;11.982;2023-04-15T04:35:54;12.00;;;5.60;;
54871;SDS011;43914;57.680;11.982;2023-04-15T04:38:20;14.10;;;6.00;;
54871;SDS011;43914;57.680;11.982;2023-04-15T04:40:45;12.40;;;5.70;;
54871;SDS011;43914;57.680;11.982;2023-04-15T04:43:11;12.60;;;6.10;;
54871;SDS011;43914;57.680;11.982;2023-04-15T04:45:37;15.40;;;6.20;;
54871;SDS011;43914;57.680;11.982;2023-04-15T04:48:02;10.40;;;4.70;;
54871;SDS011;43914;57.680;11.982;2023-04-15T04:50:31;12.40;;;5.40;;
54871;SDS011;43914;57.680;11.982;2023-04-15T04:52:57;14.60;;;6.70;;
54871;SDS011;43914;57.680;11.982;2023-04-15T04:55:22;11.50;;;5.70;;
54871;SDS011;43914;57.680;11.982;2023-04-15T04:57:47;13.50;;;7.10;;
54871;SDS011;43914;57.680;11.982;2023-04-15T05:00:13;12.20;;;5.30;;
54871;SDS011;43914;57.680;11.982;2023-04-15T05:02:39;11.40;;;5.80;;
54871;SDS011;43914;57.680;11.982;2023-04-15T05:05:06;12.90;;;5.90;;
54871;SDS011;43914;57.680;11.982;2023-04-15T05:07:32;13.70;;;6.60;;
54871;SDS011;43914;57.680;11.982;2023-04-15T05:09:58;12.30;;;5.70;;
54871;SDS011;43914;57.680;11.982;2023-04-15T05:12:23;12.20;;;6.00;;
54871;SDS011;43914;57.680;11.982;2023-04-15T05:14:49;15.80;;;5.50;;
54871;SDS011;43914;57.680;11.982;2023-04-15T05:17:14;12.70;;;5.50;;
54871;SDS011;43914;57.680;11.982;2023-04-15T05:19:40;13.90;;;6.20;;
54871;SDS011;43914;57.680;11.982;2023-04-15T05:22:05;14.40;;;6.40;;
54871;SDS011;43914;57.680;11.982;2023-04-15T05:24:31;13.10;;;5.80;;
54871;SDS011;43914;57.680;11.982;2023-04-15T05:26:57;13.50;;;5.80;;
54871;SDS011;43914;57.680;11.982;2023-04-15T05:29:22;14.80;;;5.20;;
54871;SDS011;43914;57.680;11.982;2023-04-15T05:31:47;14.50;;;5.80;;
54871;SDS011;43914;57.680;11.982;2023-04-15T05:34:13;12.10;;;5.60;;
54871;SDS011;43914;57.680;11.982;2023-04-15T05:36:40;13.90;;;6.00;;
54871;SDS011;43914;57.680;11.982;2023-04-15T05:39:06;12.30;;;6.10;;
54871;SDS011;43914;57.680;11.982;2023-04-15T05:41:31;14.00;;;6.20;;
54871;SDS011;43914;57.680;11.982;2023-04-15T05:43:57;13.60;;;6.10;;
54871;SDS011;43914;57.680;11.982;2023-04-15T05:46:22;13.10;;;6.40;;
54871;SDS011;43914;57.680;11.982;2023-04-15T05:48:48;14.90;;;6.20;;
54871;SDS011;43914;57.680;11.982;2023-04-15T05:51:13;11.60;;;5.50;;
54871;SDS011;43914;57.680;11.982;2023-04-15T05:53:39;13.10;;;5.30;;
54871;SDS011;43914;57.680;11.982;2023-04-15T05:56:05;12.20;;;5.60;;
54871;SDS011;43914;57.680;11.982;2023-04-15T05:58:31;12.50;;;6.20;;
54871;SDS011;43914;57.680;11.982;2023-04-15T06:00:57;15.50;;;6.50;;
54871;SDS011;43914;57.680;11.982;2023-04-15T06:03:23;15.00;;;6.40;;
54871;SDS011;43914;57.680;11.982;2023-04-15T06:05:49;13.20;;;5.40;;
54871;SDS011;43914;57.680;11.982;2023-04-15T06:08:14;17.50;;;6.80;;
54871;SDS011;43914;57.680;11.982;2023-04-15T06:10:40;14.10;;;6.00;;
54871;SDS011;43914;57.680;11.982;2023-04-15T06:13:06;12.70;;;6.30;;
54871;SDS011;43914;57.680;11.982;2023-04-15T06:15:32;14.70;;;6.40;;
54871;SDS011;43914;57.680;11.982;2023-04-15T06:17:57;14.00;;;6.70;;
54871;SDS011;43914;57.680;11.982;2023-04-15T06:20:23;12.20;;;5.40;;
54871;SDS011;43914;57.680;11.982;2023-04-15T06:22:49;12.30;;;6.50;;
54871;SDS011;43914;57.680;11.982;2023-04-15T06:25:15;11.70;;;6.20;;
54871;SDS011;43914;57.680;11.982;2023-04-15T06:27:40;12.00;;;6.40;;
54871;SDS011;43914;57.680;11.982;2023-04-15T06:30:06;13.60;;;6.20;;
54871;SDS011;43914;57.680;11.982;2023-04-15T06:32:32;11.70;;;5.80;;
54871;SDS011;43914;57.680;11.982;2023-04-15T06:34:58;13.90;;;6.70;;
54871;SDS011;43914;57.680;11.982;2023-04-15T06:37:23;13.50;;;6.20;;
54871;SDS011;43914;57.680;11.982;2023-04-15T06:39:49;15.60;;;6.50;;
54871;SDS011;43914;57.680;11.982;2023-04-15T06:42:15;16.50;;;6.40;;
54871;SDS011;43914;57.680;11.982;2023-04-15T06:44:41;13.20;;;6.40;;
54871;SDS011;43914;57.680;11.982;2023-04-15T06:47:06;13.80;;;6.20;;
54871;SDS011;43914;57.680;11.982;2023-04-15T06:49:33;12.90;;;6.40;;
54871;SDS011;43914;57.680;11.982;2023-04-15T06:51:59;16.40;;;6.40;;
54871;SDS011;43914;57.680;11.982;2023-04-15T06:54:25;13.50;;;6.30;;
54871;SDS011;43914;57.680;11.982;2023-04-15T06:56:51;19.30;;;7.30;;
54871;SDS011;43914;57.680;11.982;2023-04-15T06:59:17;14.80;;;6.50;;
54871;SDS011;43914;57.680;11.982;2023-04-15T07:01:43;14.20;;;6.70;;
54871;SDS011;43914;57.680;11.982;2023-04-15T07:04:08;13.20;;;6.10;;
54871;SDS011;43914;57.680;11.982;2023-04-15T07:06:35;15.20;;;7.00;;
54871;SDS011;43914;57.680;11.982;2023-04-15T07:09:01;14.80;;;6.20;;
54871;SDS011;43914;57.680;11.982;2023-04-15T07:11:27;13.70;;;6.10;;
54871;SDS011;43914;57.680;11.982;2023-04-15T07:13:53;14.70;;;6.30;;
54871;SDS011;43914;57.680;11.982;2023-04-15T07:16:18;10.80;;;5.90;;
54871;SDS011;43914;57.680;11.982;2023-04-15T07:18:44;12.20;;;5.30;;
54871;SDS011;43914;57.680;11.982;2023-04-15T07:21:09;14.50;;;6.50;;
54871;SDS011;43914;57.680;11.982;2023-04-15T07:23:35;67.30;;;9.80;;
54871;SDS011;43914;57.680;11.982;2023-04-15T07:26:01;14.60;;;6.80;;
54871;SDS011;43914;57.680;11.982;2023-04-15T07:28:27;14.10;;;5.70;;
54871;SDS011;43914;57.680;11.982;2023-04-15T07:30:52;15.20;;;6.70;;
54871;SDS011;43914;57.680;11.982;2023-04-15T07:33:18;15.20;;;6.90;;
54871;SDS011;43914;57.680;11.982;2023-04-15T07:35:43;12.30;;;6.30;;
54871;SDS011;43914;57.680;11.982;2023-04-15T07:38:09;16.20;;;6.60;;
54871;SDS011;43914;57.680;11.982;2023-04-15T07:40:37;20.10;;;7.10;;
54871;SDS011;43914;57.680;11.982;2023-04-15T07:43:03;14.60;;;6.70;;
54871;SDS011;43914;57.680;11.982;2023-04-15T07:45:29;14.30;;;6.90;;
54871;SDS011;43914;57.680;11.982;2023-04-15T07:47:55;11.50;;;5.80;;
54871;SDS011;43914;57.680;11.982;2023-04-15T07:50:21;31.40;;;7.30;;
54871;SDS011;43914;57.680;11.982;2023-04-15T07:52:47;15.10;;;6.80;;
54871;SDS011;43914;57.680;11.982;2023-04-15T07:55:17;10.60;;;5.70;;
54871;SDS011;43914;57.680;11.982;2023-04-15T07:57:45;12.20;;;6.00;;
54871;SDS011;43914;57.680;11.982;2023-04-15T08:00:11;13.10;;;6.00;;
54871;SDS011;43914;57.680;11.982;2023-04-15T08:02:37;13.10;;;7.20;;
54871;SDS011;43914;57.680;11.982;2023-04-15T08:05:03;15.00;;;7.00;;
54871;SDS011;43914;57.680;11.982;2023-04-15T08:07:29;13.50;;;6.30;;
54871;SDS011;43914;57.680;11.982;2023-04-15T08:09:55;18.00;;;6.60;;
54871;SDS011;43914;57.680;11.982;2023-04-15T08:12:20;15.80;;;6.50;;
54871;SDS011;43914;57.680;11.982;2023-04-15T08:14:46;15.50;;;6.50;;
54871;SDS011;43914;57.680;11.982;2023-04-15T08:17:11;12.50;;;5.70;;
54871;SDS011;43914;57.680;11.982;2023-04-15T08:19:37;13.90;;;6.50;;
54871;SDS011;43914;57.680;11.982;2023-04-15T08:22:03;14.50;;;6.50;;
54871;SDS011;43914;57.680;11.982;2023-04-15T08:24:29;14.00;;;6.50;;
54871;SDS011;43914;57.680;11.982;2023-04-15T08:26:57;14.00;;;6.90;;
54871;SDS011;43914;57.680;11.982;2023-04-15T08:29:23;15.00;;;6.80;;
54871;SDS011;43914;57.680;11.982;2023-04-15T08:31:49;15.40;;;7.20;;
54871;SDS011;43914;57.680;11.982;2023-04-15T08:34:15;14.70;;;6.10;;
54871;SDS011;43914;57.680;11.982;2023-04-15T08:36:41;11.80;;;5.80;;
54871;SDS011;43914;57.680;11.982;2023-04-15T08:39:07;13.20;;;6.30;;
54871;SDS011;43914;57.680;11.982;2023-04-15T08:44:13;13.70;;;7.00;;
54871;SDS011;43914;57.680;11.982;2023-04-15T08:46:40;14.30;;;6.20;;
54871;SDS011;43914;57.680;11.982;2023-04-15T08:49:09;15.30;;;6.70;;
54871;SDS011;43914;57.680;11.982;2023-04-15T08:51:39;14.90;;;6.00;;
54871;SDS011;43914;57.680;11.982;2023-04-15T08:54:06;11.90;;;5.70;;
54871;SDS011;43914;57.680;11.982;2023-04-15T08:56:33;13.70;;;6.20;;
54871;SDS011;43914;57.680;11.982;2023-04-15T08:58:59;12.20;;;5.40;;
54871;SDS011;43914;57.680;11.982;2023-04-15T09:01:26;12.90;;;6.40;;
54871;SDS011;43914;57.680;11.982;2023-04-15T09:03:52;16.10;;;7.00;;
54871;SDS011;43914;57.680;11.982;2023-04-15T09:06:19;13.90;;;6.40;;
54871;SDS011;43914;57.680;11.982;2023-04-15T09:08:45;12.60;;;5.60;;
54871;SDS011;43914;57.680;11.982;2023-04-15T09:11:11;19.50;;;6.00;;
54871;SDS011;43914;57.680;11.982;2023-04-15T09:13:37;12.60;;;5.60;;
54871;SDS011;43914;57.680;11.982;2023-04-15T09:16:06;14.60;;;6.50;;
54871;SDS011;43914;57.680;11.982;2023-04-15T09:18:33;13.80;;;6.30;;
54871;SDS011;43914;57.680;11.982;2023-04-15T09:21:10;13.50;;;6.20;;
54871;SDS011;43914;57.680;11.982;2023-04-15T09:23:38;13.00;;;6.20;;
54871;SDS011;43914;57.680;11.982;2023-04-15T09:26:06;12.90;;;6.10;;
54871;SDS011;43914;57.680;11.982;2023-04-15T09:28:32;16.50;;;6.50;;
54871;SDS011;43914;57.680;11.982;2023-04-15T09:31:05;13.60;;;5.20;;
54871;SDS011;43914;57.680;11.982;2023-04-15T09:33:31;14.50;;;6.50;;
54871;SDS011;43914;57.680;11.982;2023-04-15T09:36:02;13.70;;;6.20;;
54871;SDS011;43914;57.680;11.982;2023-04-15T09:38:29;15.60;;;6.60;;
54871;SDS011;43914;57.680;11.982;2023-04-15T09:40:56;14.90;;;6.40;;
54871;SDS011;43914;57.680;11.982;2023-04-15T09:43:35;11.90;;;5.90;;
54871;SDS011;43914;57.680;11.982;2023-04-15T09:46:04;14.40;;;5.90;;
54871;SDS011;43914;57.680;11.982;2023-04-15T09:48:30;15.60;;;6.80;;
54871;SDS011;43914;57.680;11.982;2023-04-15T09:50:59;18.20;;;5.60;;
54871;SDS011;43914;57.680;11.982;2023-04-15T09:53:26;14.60;;;6.50;;
54871;SDS011;43914;57.680;11.982;2023-04-15T09:55:56;13.40;;;6.20;;
54871;SDS011;43914;57.680;11.982;2023-04-15T09:58:27;17.40;;;6.60;;
54871;SDS011;43914;57.680;11.982;2023-04-15T10:00:56;14.00;;;6.00;;
54871;SDS011;43914;57.680;11.982;2023-04-15T10:03:23;12.20;;;5.90;;
54871;SDS011;43914;57.680;11.982;2023-04-15T10:08:29;14.20;;;5.70;;
54871;SDS011;43914;57.680;11.982;2023-04-15T10:11:02;13.30;;;6.20;;
54871;SDS011;43914;57.680;11.982;2023-04-15T10:13:29;15.90;;;6.50;;
54871;SDS011;43914;57.680;11.982;2023-04-15T10:18:33;11.90;;;6.30;;
54871;SDS011;43914;57.680;11.982;2023-04-15T10:21:00;14.10;;;6.80;;
54871;SDS011;43914;57.680;11.982;2023-04-15T10:23:26;12.90;;;6.10;;
54871;SDS011;43914;57.680;11.982;2023-04-15T10:25:52;14.70;;;6.50;;
54871;SDS011;43914;57.680;11.982;2023-04-15T10:28:19;12.50;;;6.00;;
54871;SDS011;43914;57.680;11.982;2023-04-15T10:30:47;12.80;;;6.60;;
54871;SDS011;43914;57.680;11.982;2023-04-15T10:33:14;14.40;;;6.20;;
54871;SDS011;43914;57.680;11.982;2023-04-15T10:35:42;12.70;;;6.60;;
54871;SDS011;43914;57.680;11.982;2023-04-15T10:41:10;11.20;;;6.20;;
54871;SDS011;43914;57.680;11.982;2023-04-15T10:46:22;15.80;;;6.40;;
54871;SDS011;43914;57.680;11.982;2023-04-15T10:49:11;12.70;;;5.80;;
54871;SDS011;43914;57.680;11.982;2023-04-15T10:51:41;12.50;;;5.90;;
54871;SDS011;43914;57.680;11.982;2023-04-15T10:59:30;13.20;;;6.30;;
54871;SDS011;43914;57.680;11.982;2023-04-15T11:02:00;12.60;;;6.00;;
54871;SDS011;43914;57.680;11.982;2023-04-15T11:07:32;12.50;;;5.70;;
54871;SDS011;43914;57.680;11.982;2023-04-15T11:09:59;11.80;;;5.90;;
54871;SDS011;43914;57.680;11.982;2023-04-15T11:12:35;13.00;;;6.10;;
54871;SDS011;43914;57.680;11.982;2023-04-15T11:20:31;10.90;;;6.10;;
54871;SDS011;43914;57.680;11.982;2023-04-15T11:22:56;14.90;;;5.80;;
54871;SDS011;43914;57.680;11.982;2023-04-15T11:25:25;13.10;;;6.20;;
54871;SDS011;43914;57.680;11.982;2023-04-15T11:27:52;13.30;;;6.30;;
54871;SDS011;43914;57.680;11.982;2023-04-15T11:30:23;12.80;;;6.70;;
54871;SDS011;43914;57.680;11.982;2023-04-15T11:32:53;12.00;;;6.30;;
54871;SDS011;43914;57.680;11.982;2023-04-15T11:35:22;11.40;;;5.20;;
54871;SDS011;43914;57.680;11.982;2023-04-15T11:37:48;12.60;;;6.00;;
54871;SDS011;43914;57.680;11.982;2023-04-15T11:40:15;11.40;;;5.30;;
54871;SDS011;43914;57.680;11.982;2023-04-15T11:42:43;14.00;;;6.10;;
54871;SDS011;43914;57.680;11.982;2023-04-15T11:45:12;12.30;;;5.50;;
54871;SDS011;43914;57.680;11.982;2023-04-15T11:47:42;13.70;;;6.60;;
54871;SDS011;43914;57.680;11.982;2023-04-15T11:50:18;11.70;;;6.30;;
54871;SDS011;43914;57.680;11.982;2023-04-15T11:52:52;13.70;;;6.30;;
54871;SDS011;43914;57.680;11.982;2023-04-15T11:55:18;13.00;;;5.40;;
54871;SDS011;43914;57.680;11.982;2023-04-15T11:57:43;10.00;;;5.90;;
54871;SDS011;43914;57.680;11.982;2023-04-15T12:00:09;11.50;;;5.70;;
54871;SDS011;43914;57.680;11.982;2023-04-15T12:02:35;10.50;;;5.60;;
54871;SDS011;43914;57.680;11.982;2023-04-15T12:05:02;10.50;;;5.20;;
54871;SDS011;43914;57.680;11.982;2023-04-15T12:07:29;10.70;;;5.70;;
54871;SDS011;43914;57.680;11.982;2023-04-15T12:09:54;10.40;;;5.60;;
54871;SDS011;43914;57.680;11.982;2023-04-15T12:12:21;9.30;;;5.00;;
54871;SDS011;43914;57.680;11.982;2023-04-15T12:14:51;11.80;;;5.50;;
54871;SDS011;43914;57.680;11.982;2023-04-15T12:17:17;11.10;;;5.00;;
54871;SDS011;43914;57.680;11.982;2023-04-15T12:19:42;9.10;;;4.90;;
54871;SDS011;43914;57.680;11.982;2023-04-15T12:22:19;11.70;;;5.50;;
54871;SDS011;43914;57.680;11.982;2023-04-15T12:24:46;11.90;;;5.40;;
54871;SDS011;43914;57.680;11.982;2023-04-15T12:27:13;13.10;;;4.70;;
54871;SDS011;43914;57.680;11.982;2023-04-15T12:29:40;10.10;;;5.20;;
54871;SDS011;43914;57.680;11.982;2023-04-15T12:32:14;11.00;;;5.30;;
54871;SDS011;43914;57.680;11.982;2023-04-15T12:34:41;10.90;;;4.90;;
54871;SDS011;43914;57.680;11.982;2023-04-15T12:37:09;8.30;;;4.70;;
54871;SDS011;43914;57.680;11.982;2023-04-15T12:39:39;11.30;;;5.20;;
54871;SDS011;43914;57.680;11.982;2023-04-15T12:42:06;11.80;;;5.20;;
54871;SDS011;43914;57.680;11.982;2023-04-15T12:44:32;9.40;;;5.10;;
54871;SDS011;43914;57.680;11.982;2023-04-15T12:46:59;9.90;;;5.20;;
54871;SDS011;43914;57.680;11.982;2023-04-15T12:49:25;12.50;;;5.10;;
54871;SDS011;43914;57.680;11.982;2023-04-15T12:51:52;9.70;;;5.10;;
54871;SDS011;43914;57.680;11.982;2023-04-15T12:54:19;9.20;;;4.90;;
54871;SDS011;43914;57.680;11.982;2023-04-15T12:56:46;13.20;;;4.60;;
54871;SDS011;43914;57.680;11.982;2023-04-15T12:59:13;10.00;;;4.30;;
54871;SDS011;43914;57.680;11.982;2023-04-15T13:01:40;8.70;;;4.30;;
54871;SDS011;43914;57.680;11.982;2023-04-15T13:04:06;8.30;;;4.30;;
54871;SDS011;43914;57.680;11.982;2023-04-15T13:06:31;9.80;;;4.60;;
54871;SDS011;43914;57.680;11.982;2023-04-15T13:09:00;10.30;;;4.40;;
54871;SDS011;43914;57.680;11.982;2023-04-15T13:11:27;12.70;;;5.10;;
54871;SDS011;43914;57.680;11.982;2023-04-15T13:13:55;9.30;;;4.40;;
54871;SDS011;43914;57.680;11.982;2023-04-15T13:16:22;10.60;;;4.90;;
54871;SDS011;43914;57.680;11.982;2023-04-15T13:18:48;10.20;;;4.60;;
54871;SDS011;43914;57.680;11.982;2023-04-15T13:21:14;10.20;;;4.20;;
54871;SDS011;43914;57.680;11.982;2023-04-15T13:23:40;9.40;;;4.40;;
54871;SDS011;43914;57.680;11.982;2023-04-15T13:26:06;12.00;;;4.10;;
54871;SDS011;43914;57.680;11.982;2023-04-15T13:28:32;11.40;;;4.20;;
54871;SDS011;43914;57.680;11.982;2023-04-15T13:30:58;12.10;;;4.50;;
54871;SDS011;43914;57.680;11.982;2023-04-15T13:33:24;11.50;;;4.90;;
54871;SDS011;43914;57.680;11.982;2023-04-15T13:35:50;10.50;;;4.10;;
54871;SDS011;43914;57.680;11.982;2023-04-15T13:38:15;11.70;;;4.40;;
54871;SDS011;43914;57.680;11.982;2023-04-15T13:40:41;8.40;;;3.80;;
54871;SDS011;43914;57.680;11.982;2023-04-15T13:43:06;8.60;;;3.70;;
54871;SDS011;43914;57.680;11.982;2023-04-15T13:45:32;9.40;;;4.30;;
54871;SDS011;43914;57.680;11.982;2023-04-15T13:47:58;11.40;;;3.90;;
54871;SDS011;43914;57.680;11.982;2023-04-15T13:50:23;10.90;;;4.10;;
54871;SDS011;43914;57.680;11.982;2023-04-15T13:52:49;8.30;;;3.20;;
54871;SDS011;43914;57.680;11.982;2023-04-15T13:55:15;8.20;;;3.30;;
54871;SDS011;43914;57.680;11.982;2023-04-15T13:57:41;8.30;;;3.60;;
54871;SDS011;43914;57.680;11.982;2023-04-15T14:00:09;7.90;;;3.50;;
54871;SDS011;43914;57.680;11.982;2023-04-15T14:02:35;8.20;;;3.10;;
54871;SDS011;43914;57.680;11.982;2023-04-15T14:05:01;10.80;;;3.70;;
54871;SDS011;43914;57.680;11.982;2023-04-15T14:07:27;10.80;;;3.50;;
54871;SDS011;43914;57.680;11.982;2023-04-15T14:09:54;8.60;;;3.90;;
54871;SDS011;43914;57.680;11.982;2023-04-15T14:12:19;9.30;;;3.50;;
54871;SDS011;43914;57.680;11.982;2023-04-15T14:14:45;9.70;;;3.80;;
54871;SDS011;43914;57.680;11.982;2023-04-15T14:17:10;10.10;;;3.40;;
54871;SDS011;43914;57.680;11.982;2023-04-15T14:19:35;9.50;;;3.50;;
54871;SDS011;43914;57.680;11.982;2023-04-15T14:22:01;8.70;;;3.30;;
54871;SDS011;43914;57.680;11.982;2023-04-15T14:24:27;8.50;;;3.60;;
54871;SDS011;43914;57.680;11.982;2023-04-15T14:26:53;8.00;;;3.60;;
54871;SDS011;43914;57.680;11.982;2023-04-15T14:29:18;9.60;;;3.50;;
54871;SDS011;43914;57.680;11.982;2023-04-15T14:31:44;10.80;;;2.90;;
54871;SDS011;43914;57.680;11.982;2023-04-15T14:34:10;6.90;;;3.00;;
54871;SDS011;43914;57.680;11.982;2023-04-15T14:36:35;8.10;;;3.10;;
54871;SDS011;43914;57.680;11.982;2023-04-15T14:39:01;7.90;;;3.10;;
54871;SDS011;43914;57.680;11.982;2023-04-15T14:41:28;8.80;;;3.20;;
54871;SDS011;43914;57.680;11.982;2023-04-15T14:43:53;10.50;;;3.40;;
54871;SDS011;43914;57.680;11.982;2023-04-15T14:46:19;8.10;;;3.00;;